sensor_id;sensor_type;location;lat;lon;timestamp;pressure;altitude;pressure_sealevel;temperature;humidity
51849;BME280;38952;51.090;-1.832;2023-02-28T00:02:15;102014.34;;;1.21;85.97
51849;BME280;38952;51.090;-1.832;2023-02-28T00:04:45;102011.28;;;1.16;85.96
51849;BME280;38952;51.090;-1.832;2023-02-28T00:07:11;101994.41;;;1.06;86.52
51849;BME280;38952;51.090;-1.832;2023-02-28T00:09:38;102006.22;;;1.13;86.55
51849;BME280;38952;51.090;-1.832;2023-02-28T00:12:03;102021.72;;;1.11;86.25
51849;BME280;38952;51.090;-1.832;2023-02-28T00:14:35;102012.28;;;1.07;85.88
51849;BME280;38952;51.090;-1.832;2023-02-28T00:17:01;102015.63;;;1.01;86.76
51849;BME280;38952;51.090;-1.832;2023-02-28T00:19:26;102006.84;;;0.99;86.37
51849;BME280;38952;51.090;-1.832;2023-02-28T00:21:52;102007.84;;;0.98;86.25
51849;BME280;38952;51.090;-1.832;2023-02-28T00:24:17;102021.66;;;0.95;86.42
51849;BME280;38952;51.090;-1.832;2023-02-28T00:26:42;102020.97;;;0.93;86.99
51849;BME280;38952;51.090;-1.832;2023-02-28T00:29:08;102017.94;;;0.96;86.14
51849;BME280;38952;51.090;-1.832;2023-02-28T00:31:33;102024.72;;;1.00;86.51
51849;BME280;38952;51.090;-1.832;2023-02-28T00:33:59;102019.81;;;0.95;85.95
51849;BME280;38952;51.090;-1.832;2023-02-28T00:36:24;102023.34;;;0.96;86.59
51849;BME280;38952;51.090;-1.832;2023-02-28T00:38:50;102019.94;;;0.85;86.57
51849;BME280;38952;51.090;-1.832;2023-02-28T00:41:15;102022.25;;;0.80;86.48
51849;BME280;38952;51.090;-1.832;2023-02-28T00:43:41;102026.16;;;0.78;86.63
51849;BME280;38952;51.090;-1.832;2023-02-28T00:46:07;102011.09;;;0.59;85.70
51849;BME280;38952;51.090;-1.832;2023-02-28T00:48:33;102037.03;;;0.68;85.66
51849;BME280;38952;51.090;-1.832;2023-02-28T00:50:58;102014.41;;;0.52;85.81
51849;BME280;38952;51.090;-1.832;2023-02-28T00:53:24;102025.53;;;0.58;86.35
51849;BME280;38952;51.090;-1.832;2023-02-28T00:55:50;102031.56;;;0.51;85.92
51849;BME280;38952;51.090;-1.832;2023-02-28T00:58:16;102023.44;;;0.43;85.99
51849;BME280;38952;51.090;-1.832;2023-02-28T01:00:41;102016.19;;;0.36;86.50
51849;BME280;38952;51.090;-1.832;2023-02-28T01:03:07;102031.19;;;0.46;86.50
51849;BME280;38952;51.090;-1.832;2023-02-28T01:05:32;102034.25;;;0.51;86.64
51849;BME280;38952;51.090;-1.832;2023-02-28T01:07:57;102025.16;;;0.52;86.36
51849;BME280;38952;51.090;-1.832;2023-02-28T01:10:23;102021.97;;;0.49;86.62
51849;BME280;38952;51.090;-1.832;2023-02-28T01:12:49;102035.25;;;0.50;86.56
51849;BME280;38952;51.090;-1.832;2023-02-28T01:15:15;102036.09;;;0.51;86.68
51849;BME280;38952;51.090;-1.832;2023-02-28T01:17:41;102033.72;;;0.48;86.96
51849;BME280;38952;51.090;-1.832;2023-02-28T01:20:06;102040.28;;;0.45;86.97
51849;BME280;38952;51.090;-1.832;2023-02-28T01:22:34;102022.06;;;0.39;87.42
51849;BME280;38952;51.090;-1.832;2023-02-28T01:25:00;102025.09;;;0.36;87.21
51849;BME280;38952;51.090;-1.832;2023-02-28T01:27:25;102034.84;;;0.37;87.02
51849;BME280;38952;51.090;-1.832;2023-02-28T01:29:52;102029.72;;;0.26;87.61
51849;BME280;38952;51.090;-1.832;2023-02-28T01:32:19;102037.47;;;0.29;87.69
51849;BME280;38952;51.090;-1.832;2023-02-28T01:34:44;102038.78;;;0.25;87.68
51849;BME280;38952;51.090;-1.832;2023-02-28T01:37:10;102046.59;;;0.28;88.51
51849;BME280;38952;51.090;-1.832;2023-02-28T01:39:35;102023.59;;;0.15;88.33
51849;BME280;38952;51.090;-1.832;2023-02-28T01:42:01;102034.75;;;0.21;88.37
51849;BME280;38952;51.090;-1.832;2023-02-28T01:47:34;102013.41;;;0.01;88.22
51849;BME280;38952;51.090;-1.832;2023-02-28T01:50:02;102032.47;;;0.08;89.44
51849;BME280;38952;51.090;-1.832;2023-02-28T01:52:31;102023.84;;;0.04;88.82
51849;BME280;38952;51.090;-1.832;2023-02-28T01:55:00;102039.41;;;0.10;88.62
51849;BME280;38952;51.090;-1.832;2023-02-28T01:57:33;102041.94;;;0.12;88.72
51849;BME280;38952;51.090;-1.832;2023-02-28T02:00:08;102032.63;;;0.06;89.30
51849;BME280;38952;51.090;-1.832;2023-02-28T02:02:36;102025.50;;;-0.03;89.12
51849;BME280;38952;51.090;-1.832;2023-02-28T02:05:08;102027.44;;;-0.13;89.41
51849;BME280;38952;51.090;-1.832;2023-02-28T02:07:38;102009.16;;;-0.28;89.38
51849;BME280;38952;51.090;-1.832;2023-02-28T02:10:20;102034.28;;;-0.19;88.97
51849;BME280;38952;51.090;-1.832;2023-02-28T02:15:31;102024.69;;;-0.22;89.91
51849;BME280;38952;51.090;-1.832;2023-02-28T02:18:46;102026.34;;;-0.21;89.50
51849;BME280;38952;51.090;-1.832;2023-02-28T02:21:19;102027.38;;;-0.22;90.50
51849;BME280;38952;51.090;-1.832;2023-02-28T02:26:55;102027.94;;;-0.36;90.70
51849;BME280;38952;51.090;-1.832;2023-02-28T02:32:40;102026.84;;;-0.43;89.96
51849;BME280;38952;51.090;-1.832;2023-02-28T02:41:04;102018.03;;;-0.54;90.29
51849;BME280;38952;51.090;-1.832;2023-02-28T02:43:43;102018.34;;;-0.57;90.82
51849;BME280;38952;51.090;-1.832;2023-02-28T02:46:20;102019.84;;;-0.54;91.42
51849;BME280;38952;51.090;-1.832;2023-02-28T02:48:47;102018.06;;;-0.45;91.09
51849;BME280;38952;51.090;-1.832;2023-02-28T02:51:16;102016.09;;;-0.43;91.23
51849;BME280;38952;51.090;-1.832;2023-02-28T02:53:56;102015.38;;;-0.45;91.64
51849;BME280;38952;51.090;-1.832;2023-02-28T02:56:27;102016.72;;;-0.49;91.32
51849;BME280;38952;51.090;-1.832;2023-02-28T02:58:58;102019.25;;;-0.48;91.47
51849;BME280;38952;51.090;-1.832;2023-02-28T03:01:25;102019.56;;;-0.51;92.29
51849;BME280;38952;51.090;-1.832;2023-02-28T03:04:14;102014.47;;;-0.54;92.42
51849;BME280;38952;51.090;-1.832;2023-02-28T03:06:41;102022.25;;;-0.51;92.17
51849;BME280;38952;51.090;-1.832;2023-02-28T03:09:10;102012.97;;;-0.57;91.94
51849;BME280;38952;51.090;-1.832;2023-02-28T03:11:37;102017.88;;;-0.52;92.60
51849;BME280;38952;51.090;-1.832;2023-02-28T03:17:12;102025.47;;;-0.47;93.04
51849;BME280;38952;51.090;-1.832;2023-02-28T03:22:52;102028.69;;;-0.62;93.22
51849;BME280;38952;51.090;-1.832;2023-02-28T03:28:00;102025.94;;;-0.70;92.26
51849;BME280;38952;51.090;-1.832;2023-02-28T03:30:52;102027.59;;;-0.69;93.23
51849;BME280;38952;51.090;-1.832;2023-02-28T03:33:35;102023.25;;;-0.70;92.80
51849;BME280;38952;51.090;-1.832;2023-02-28T03:36:08;102027.28;;;-0.66;93.49
51849;BME280;38952;51.090;-1.832;2023-02-28T03:38:48;102025.00;;;-0.61;93.11
51849;BME280;38952;51.090;-1.832;2023-02-28T03:41:25;102024.59;;;-0.66;93.19
51849;BME280;38952;51.090;-1.832;2023-02-28T03:44:05;102025.00;;;-0.61;93.77
51849;BME280;38952;51.090;-1.832;2023-02-28T03:46:36;102023.63;;;-0.65;93.97
51849;BME280;38952;51.090;-1.832;2023-02-28T03:49:26;102033.38;;;-0.64;94.15
51849;BME280;38952;51.090;-1.832;2023-02-28T03:51:54;102025.31;;;-0.64;94.81
51849;BME280;38952;51.090;-1.832;2023-02-28T03:54:33;102022.94;;;-0.67;94.11
51849;BME280;38952;51.090;-1.832;2023-02-28T03:57:12;102027.28;;;-0.66;94.79
51849;BME280;38952;51.090;-1.832;2023-02-28T03:59:47;102031.84;;;-0.66;94.55
51849;BME280;38952;51.090;-1.832;2023-02-28T04:02:16;102022.53;;;-0.72;94.82
51849;BME280;38952;51.090;-1.832;2023-02-28T04:04:41;102019.16;;;-0.74;95.18
51849;BME280;38952;51.090;-1.832;2023-02-28T04:07:11;102025.38;;;-0.74;94.84
51849;BME280;38952;51.090;-1.832;2023-02-28T04:09:37;102015.78;;;-0.76;95.83
51849;BME280;38952;51.090;-1.832;2023-02-28T04:12:03;102015.78;;;-0.76;96.05
51849;BME280;38952;51.090;-1.832;2023-02-28T04:14:28;102007.66;;;-0.84;95.83
51849;BME280;38952;51.090;-1.832;2023-02-28T04:16:54;102006.63;;;-0.83;95.75
51849;BME280;38952;51.090;-1.832;2023-02-28T04:19:19;101998.97;;;-0.78;95.60
51849;BME280;38952;51.090;-1.832;2023-02-28T04:21:47;102019.84;;;-0.72;95.99
51849;BME280;38952;51.090;-1.832;2023-02-28T04:24:16;102018.84;;;-0.71;95.95
51849;BME280;38952;51.090;-1.832;2023-02-28T04:26:45;102009.81;;;-0.70;96.41
51849;BME280;38952;51.090;-1.832;2023-02-28T04:29:13;102018.91;;;-0.63;95.80
51849;BME280;38952;51.090;-1.832;2023-02-28T04:31:39;102020.09;;;-0.65;96.52
51849;BME280;38952;51.090;-1.832;2023-02-28T04:34:04;102016.84;;;-0.69;96.64
51849;BME280;38952;51.090;-1.832;2023-02-28T04:36:30;102017.41;;;-0.65;96.38
51849;BME280;38952;51.090;-1.832;2023-02-28T04:38:56;102027.84;;;-0.62;96.62
51849;BME280;38952;51.090;-1.832;2023-02-28T04:41:21;102029.00;;;-0.65;97.18
51849;BME280;38952;51.090;-1.832;2023-02-28T04:43:48;102030.06;;;-0.58;96.92
51849;BME280;38952;51.090;-1.832;2023-02-28T04:46:13;102031.06;;;-0.59;96.50
51849;BME280;38952;51.090;-1.832;2023-02-28T04:48:39;102034.78;;;-0.60;96.90
51849;BME280;38952;51.090;-1.832;2023-02-28T04:51:10;102027.59;;;-0.69;96.94
51849;BME280;38952;51.090;-1.832;2023-02-28T04:53:37;102027.59;;;-0.69;97.18
51849;BME280;38952;51.090;-1.832;2023-02-28T04:56:04;102023.53;;;-0.73;96.58
51849;BME280;38952;51.090;-1.832;2023-02-28T04:58:30;102039.75;;;-0.65;97.20
51849;BME280;38952;51.090;-1.832;2023-02-28T05:01:05;102022.22;;;-0.69;96.96
51849;BME280;38952;51.090;-1.832;2023-02-28T05:03:40;102039.44;;;-0.62;97.20
51849;BME280;38952;51.090;-1.832;2023-02-28T05:06:07;102038.28;;;-0.59;97.23
51849;BME280;38952;51.090;-1.832;2023-02-28T05:08:32;102039.44;;;-0.62;97.84
51849;BME280;38952;51.090;-1.832;2023-02-28T05:10:58;102044.50;;;-0.59;97.74
51849;BME280;38952;51.090;-1.832;2023-02-28T05:13:26;102044.19;;;-0.56;97.74
51849;BME280;38952;51.090;-1.832;2023-02-28T05:15:53;102033.53;;;-0.65;97.75
51849;BME280;38952;51.090;-1.832;2023-02-28T05:18:19;102041.81;;;-0.59;97.88
51849;BME280;38952;51.090;-1.832;2023-02-28T05:20:44;102051.03;;;-0.61;97.86
51849;BME280;38952;51.090;-1.832;2023-02-28T05:23:14;102052.88;;;-0.62;98.29
51849;BME280;38952;51.090;-1.832;2023-02-28T05:25:40;102061.09;;;-0.63;98.23
51849;BME280;38952;51.090;-1.832;2023-02-28T05:28:06;102067.06;;;-0.69;98.59
51849;BME280;38952;51.090;-1.832;2023-02-28T05:30:32;102067.13;;;-0.79;98.14
51849;BME280;38952;51.090;-1.832;2023-02-28T05:32:58;102071.69;;;-0.90;98.92
51849;BME280;38952;51.090;-1.832;2023-02-28T05:35:24;102068.38;;;-1.01;98.06
51849;BME280;38952;51.090;-1.832;2023-02-28T05:37:50;102046.28;;;-1.23;98.34
51849;BME280;38952;51.090;-1.832;2023-02-28T05:40:16;102053.91;;;-1.18;99.00
51849;BME280;38952;51.090;-1.832;2023-02-28T05:42:42;102067.13;;;-1.07;98.42
51849;BME280;38952;51.090;-1.832;2023-02-28T05:45:08;102068.38;;;-1.01;98.09
51849;BME280;38952;51.090;-1.832;2023-02-28T05:47:34;102072.75;;;-1.00;98.83
51849;BME280;38952;51.090;-1.832;2023-02-28T05:50:00;102074.16;;;-0.96;99.30
51849;BME280;38952;51.090;-1.832;2023-02-28T05:52:27;102079.06;;;-0.92;98.55
51849;BME280;38952;51.090;-1.832;2023-02-28T05:54:54;102069.63;;;-0.96;98.08
51849;BME280;38952;51.090;-1.832;2023-02-28T05:57:20;102064.84;;;-1.02;98.16
51849;BME280;38952;51.090;-1.832;2023-02-28T05:59:45;102075.28;;;-0.99;98.08
51849;BME280;38952;51.090;-1.832;2023-02-28T06:02:13;102067.84;;;-1.05;98.22
51849;BME280;38952;51.090;-1.832;2023-02-28T06:04:39;102064.75;;;-1.10;98.38
51849;BME280;38952;51.090;-1.832;2023-02-28T06:07:06;102057.38;;;-1.08;98.83
51849;BME280;38952;51.090;-1.832;2023-02-28T06:09:31;102058.69;;;-1.12;98.81
51849;BME280;38952;51.090;-1.832;2023-02-28T06:11:58;102056.84;;;-1.12;97.82
51849;BME280;38952;51.090;-1.832;2023-02-28T06:14:26;102067.72;;;-1.13;98.53
51849;BME280;38952;51.090;-1.832;2023-02-28T06:16:52;102064.38;;;-1.15;99.52
51849;BME280;38952;51.090;-1.832;2023-02-28T06:19:17;102068.41;;;-1.11;99.22
51849;BME280;38952;51.090;-1.832;2023-02-28T06:21:43;102065.44;;;-1.08;98.51
51849;BME280;38952;51.090;-1.832;2023-02-28T06:24:09;102064.44;;;-1.07;98.82
51849;BME280;38952;51.090;-1.832;2023-02-28T06:26:35;102067.69;;;-1.03;98.31
51849;BME280;38952;51.090;-1.832;2023-02-28T06:29:00;102068.53;;;-1.03;99.05
51849;BME280;38952;51.090;-1.832;2023-02-28T06:31:26;102063.16;;;-1.03;98.34
51849;BME280;38952;51.090;-1.832;2023-02-28T06:33:54;102066.38;;;-0.99;99.20
51849;BME280;38952;51.090;-1.832;2023-02-28T06:36:20;102067.31;;;-0.91;99.38
51849;BME280;38952;51.090;-1.832;2023-02-28T06:38:45;102059.72;;;-0.95;99.40
51849;BME280;38952;51.090;-1.832;2023-02-28T06:41:13;102057.47;;;-1.00;98.61
51849;BME280;38952;51.090;-1.832;2023-02-28T06:43:41;102078.66;;;-0.97;98.49
51849;BME280;38952;51.090;-1.832;2023-02-28T06:46:08;102089.97;;;-0.93;98.69
51849;BME280;38952;51.090;-1.832;2023-02-28T06:48:36;102088.28;;;-0.94;99.42
51849;BME280;38952;51.090;-1.832;2023-02-28T06:51:06;102078.66;;;-0.97;99.28
51849;BME280;38952;51.090;-1.832;2023-02-28T06:53:33;102087.44;;;-0.95;99.81
51849;BME280;38952;51.090;-1.832;2023-02-28T06:55:58;102081.50;;;-0.98;99.05
51849;BME280;38952;51.090;-1.832;2023-02-28T06:58:24;102091.09;;;-0.96;98.74
51849;BME280;38952;51.090;-1.832;2023-02-28T07:00:51;102091.09;;;-0.96;99.77
51849;BME280;38952;51.090;-1.832;2023-02-28T07:03:18;102085.06;;;-0.98;99.22
51849;BME280;38952;51.090;-1.832;2023-02-28T07:05:46;102078.50;;;-0.95;100.00
51849;BME280;38952;51.090;-1.832;2023-02-28T07:08:12;102086.72;;;-0.97;99.89
51849;BME280;38952;51.090;-1.832;2023-02-28T07:10:41;102091.00;;;-1.04;99.91
51849;BME280;38952;51.090;-1.832;2023-02-28T07:13:07;102102.16;;;-0.99;100.00
51849;BME280;38952;51.090;-1.832;2023-02-28T07:15:34;102098.75;;;-1.01;100.00
51849;BME280;38952;51.090;-1.832;2023-02-28T07:18:00;102089.19;;;-1.03;99.61
51849;BME280;38952;51.090;-1.832;2023-02-28T07:20:25;102090.31;;;-1.06;99.83
51849;BME280;38952;51.090;-1.832;2023-02-28T07:25:37;102103.94;;;-0.90;99.94
51849;BME280;38952;51.090;-1.832;2023-02-28T07:28:26;102113.19;;;-0.74;99.88
51849;BME280;38952;51.090;-1.832;2023-02-28T07:31:09;102117.06;;;-0.59;100.00
51849;BME280;38952;51.090;-1.832;2023-02-28T07:33:57;102110.28;;;-0.35;100.00
51849;BME280;38952;51.090;-1.832;2023-02-28T07:36:22;102092.44;;;-0.36;100.00
51849;BME280;38952;51.090;-1.832;2023-02-28T07:38:48;102113.88;;;-0.26;99.68
51849;BME280;38952;51.090;-1.832;2023-02-28T07:41:20;102117.78;;;-0.21;99.31
51849;BME280;38952;51.090;-1.832;2023-02-28T07:43:46;102126.78;;;0.06;99.02
51849;BME280;38952;51.090;-1.832;2023-02-28T07:46:14;102100.03;;;0.49;99.79
51849;BME280;38952;51.090;-1.832;2023-02-28T07:48:46;102109.28;;;1.58;98.72
51849;BME280;38952;51.090;-1.832;2023-02-28T07:51:11;102116.72;;;3.11;93.39
51849;BME280;38952;51.090;-1.832;2023-02-28T07:53:56;102116.66;;;4.96;83.99
51849;BME280;38952;51.090;-1.832;2023-02-28T07:56:21;102107.81;;;6.40;76.99
51849;BME280;38952;51.090;-1.832;2023-02-28T07:58:47;102126.13;;;7.78;71.37
51849;BME280;38952;51.090;-1.832;2023-02-28T08:01:13;102115.84;;;9.01;66.36
51849;BME280;38952;51.090;-1.832;2023-02-28T08:03:40;102117.16;;;10.14;62.18
51849;BME280;38952;51.090;-1.832;2023-02-28T08:06:07;102128.50;;;11.12;58.68
51849;BME280;38952;51.090;-1.832;2023-02-28T08:08:34;102140.19;;;11.86;56.41
51849;BME280;38952;51.090;-1.832;2023-02-28T08:11:03;102134.44;;;11.27;56.82
51849;BME280;38952;51.090;-1.832;2023-02-28T08:13:29;102138.38;;;11.31;57.90
51849;BME280;38952;51.090;-1.832;2023-02-28T08:16:04;102130.38;;;11.97;56.25
51849;BME280;38952;51.090;-1.832;2023-02-28T08:18:33;102133.09;;;12.87;54.04
51849;BME280;38952;51.090;-1.832;2023-02-28T08:20:59;102147.03;;;13.73;52.18
51849;BME280;38952;51.090;-1.832;2023-02-28T08:23:25;102144.41;;;14.75;49.59
51849;BME280;38952;51.090;-1.832;2023-02-28T08:25:54;102137.16;;;15.52;47.12
51849;BME280;38952;51.090;-1.832;2023-02-28T08:28:20;102149.56;;;16.32;46.00
51849;BME280;38952;51.090;-1.832;2023-02-28T08:30:46;102153.72;;;17.09;44.49
51849;BME280;38952;51.090;-1.832;2023-02-28T08:33:11;102146.53;;;17.72;43.03
51849;BME280;38952;51.090;-1.832;2023-02-28T08:35:37;102154.41;;;18.21;41.93
51849;BME280;38952;51.090;-1.832;2023-02-28T08:38:02;102165.47;;;18.47;41.32
51849;BME280;38952;51.090;-1.832;2023-02-28T08:40:28;102161.56;;;19.05;39.92
51849;BME280;38952;51.090;-1.832;2023-02-28T08:43:14;102149.97;;;19.63;38.58
51849;BME280;38952;51.090;-1.832;2023-02-28T08:45:39;102131.81;;;20.55;36.88
51849;BME280;38952;51.090;-1.832;2023-02-28T08:51:51;102151.63;;;21.74;33.63
51849;BME280;38952;51.090;-1.832;2023-02-28T08:54:37;102148.09;;;22.40;32.15
51849;BME280;38952;51.090;-1.832;2023-02-28T08:57:23;102155.09;;;22.70;32.79
51849;BME280;38952;51.090;-1.832;2023-02-28T09:00:16;102162.91;;;23.29;32.14
51849;BME280;38952;51.090;-1.832;2023-02-28T09:02:45;102136.78;;;23.25;30.29
51849;BME280;38952;51.090;-1.832;2023-02-28T09:05:24;102146.84;;;23.76;29.62
51849;BME280;38952;51.090;-1.832;2023-02-28T09:07:50;102169.13;;;24.04;28.94
51849;BME280;38952;51.090;-1.832;2023-02-28T09:10:24;102151.00;;;22.48;30.15
51849;BME280;38952;51.090;-1.832;2023-02-28T09:12:52;102145.56;;;19.57;33.98
51849;BME280;38952;51.090;-1.832;2023-02-28T09:15:18;102150.31;;;17.50;37.41
51849;BME280;38952;51.090;-1.832;2023-02-28T09:17:43;102136.19;;;16.46;39.75
51849;BME280;38952;51.090;-1.832;2023-02-28T09:20:09;102138.06;;;16.40;39.25
51849;BME280;38952;51.090;-1.832;2023-02-28T09:22:40;102137.53;;;16.43;39.50
51849;BME280;38952;51.090;-1.832;2023-02-28T09:25:07;102127.91;;;16.51;39.79
51849;BME280;38952;51.090;-1.832;2023-02-28T09:27:33;102146.19;;;16.25;39.47
51849;BME280;38952;51.090;-1.832;2023-02-28T09:29:59;102130.94;;;15.84;40.62
51849;BME280;38952;51.090;-1.832;2023-02-28T09:32:24;102127.22;;;15.51;40.60
51849;BME280;38952;51.090;-1.832;2023-02-28T09:34:49;102138.63;;;14.60;41.70
51849;BME280;38952;51.090;-1.832;2023-02-28T09:37:15;102109.94;;;14.05;42.82
51849;BME280;38952;51.090;-1.832;2023-02-28T09:39:40;102129.66;;;13.85;43.12
51849;BME280;38952;51.090;-1.832;2023-02-28T09:42:20;102140.94;;;13.19;43.99
51849;BME280;38952;51.090;-1.832;2023-02-28T09:44:57;102128.06;;;12.36;45.44
51849;BME280;38952;51.090;-1.832;2023-02-28T09:48:15;102121.63;;;11.58;47.58
51849;BME280;38952;51.090;-1.832;2023-02-28T09:52:55;102123.97;;;10.62;50.22
51849;BME280;38952;51.090;-1.832;2023-02-28T09:55:51;102134.97;;;9.91;51.70
51849;BME280;38952;51.090;-1.832;2023-02-28T10:01:39;102125.75;;;9.47;54.19
51849;BME280;38952;51.090;-1.832;2023-02-28T10:10:41;102128.69;;;8.94;56.50
51849;BME280;38952;51.090;-1.832;2023-02-28T10:14:35;102144.22;;;8.80;56.84
51849;BME280;38952;51.090;-1.832;2023-02-28T10:16:51;102132.09;;;8.69;57.67
51849;BME280;38952;51.090;-1.832;2023-02-28T10:22:03;102138.34;;;8.89;57.73
51849;BME280;38952;51.090;-1.832;2023-02-28T10:24:48;102136.25;;;8.78;58.91
51849;BME280;38952;51.090;-1.832;2023-02-28T10:27:27;102137.53;;;8.82;58.36
51849;BME280;38952;51.090;-1.832;2023-02-28T10:29:57;102122.38;;;9.00;58.31
51849;BME280;38952;51.090;-1.832;2023-02-28T10:34:57;102120.59;;;9.25;57.18
51849;BME280;38952;51.090;-1.832;2023-02-28T10:37:28;102132.28;;;9.46;56.91
51849;BME280;38952;51.090;-1.832;2023-02-28T10:39:58;102108.63;;;9.26;56.58
51849;BME280;38952;51.090;-1.832;2023-02-28T10:42:38;102128.16;;;9.30;57.03
51849;BME280;38952;51.090;-1.832;2023-02-28T10:45:11;102132.91;;;9.48;56.81
51849;BME280;38952;51.090;-1.832;2023-02-28T10:48:04;102111.59;;;9.64;55.85
51849;BME280;38952;51.090;-1.832;2023-02-28T10:50:45;102104.66;;;10.00;55.40
51849;BME280;38952;51.090;-1.832;2023-02-28T10:58:46;102104.41;;;10.33;54.21
51849;BME280;38952;51.090;-1.832;2023-02-28T11:01:41;102117.28;;;10.26;54.49
51849;BME280;38952;51.090;-1.832;2023-02-28T11:04:32;102096.91;;;9.96;54.11
51849;BME280;38952;51.090;-1.832;2023-02-28T11:07:20;102086.63;;;9.92;54.85
51849;BME280;38952;51.090;-1.832;2023-02-28T11:09:49;102095.34;;;10.07;55.21
51849;BME280;38952;51.090;-1.832;2023-02-28T11:12:35;102096.69;;;9.98;54.59
51849;BME280;38952;51.090;-1.832;2023-02-28T11:15:05;102093.69;;;9.74;55.50
51849;BME280;38952;51.090;-1.832;2023-02-28T11:17:32;102106.84;;;9.52;55.76
51849;BME280;38952;51.090;-1.832;2023-02-28T11:20:01;102085.53;;;9.22;56.58
51849;BME280;38952;51.090;-1.832;2023-02-28T11:22:32;102094.91;;;9.40;56.81
51849;BME280;38952;51.090;-1.832;2023-02-28T11:25:22;102080.59;;;9.44;56.33
51849;BME280;38952;51.090;-1.832;2023-02-28T11:28:02;102096.09;;;9.57;56.66
51849;BME280;38952;51.090;-1.832;2023-02-28T11:30:41;102093.84;;;9.79;56.62
51849;BME280;38952;51.090;-1.832;2023-02-28T11:33:29;102100.16;;;10.12;56.36
51849;BME280;38952;51.090;-1.832;2023-02-28T11:36:20;102109.88;;;10.08;55.47
51849;BME280;38952;51.090;-1.832;2023-02-28T11:38:50;102093.78;;;9.93;55.43
51849;BME280;38952;51.090;-1.832;2023-02-28T11:41:39;102085.09;;;9.71;55.81
51849;BME280;38952;51.090;-1.832;2023-02-28T11:52:02;102091.25;;;9.14;57.77
51849;BME280;38952;51.090;-1.832;2023-02-28T12:00:33;102090.06;;;8.83;59.16
51849;BME280;38952;51.090;-1.832;2023-02-28T12:11:35;102068.78;;;9.12;58.81
51849;BME280;38952;51.090;-1.832;2023-02-28T12:17:06;102061.97;;;9.35;58.87
51849;BME280;38952;51.090;-1.832;2023-02-28T12:22:43;102053.34;;;9.38;57.76
51849;BME280;38952;51.090;-1.832;2023-02-28T12:28:19;102045.78;;;9.40;58.30
51849;BME280;38952;51.090;-1.832;2023-02-28T12:31:11;102028.13;;;9.42;57.76
51849;BME280;38952;51.090;-1.832;2023-02-28T12:33:46;102015.38;;;10.62;57.51
51849;BME280;38952;51.090;-1.832;2023-02-28T12:36:18;102007.25;;;12.19;54.71
51849;BME280;38952;51.090;-1.832;2023-02-28T12:38:59;102020.94;;;12.55;51.11
51849;BME280;38952;51.090;-1.832;2023-02-28T12:41:49;102012.63;;;11.72;50.59
51849;BME280;38952;51.090;-1.832;2023-02-28T12:44:37;102012.00;;;10.97;52.44
51849;BME280;38952;51.090;-1.832;2023-02-28T12:47:14;102021.25;;;10.41;53.94
51849;BME280;38952;51.090;-1.832;2023-02-28T12:49:52;102016.06;;;10.07;54.78
51849;BME280;38952;51.090;-1.832;2023-02-28T12:58:42;101976.50;;;8.96;57.98
51849;BME280;38952;51.090;-1.832;2023-02-28T13:10:02;101983.09;;;9.20;58.44
51849;BME280;38952;51.090;-1.832;2023-02-28T13:12:50;101988.06;;;9.30;58.84
51849;BME280;38952;51.090;-1.832;2023-02-28T13:15:24;101987.03;;;9.31;58.59
51849;BME280;38952;51.090;-1.832;2023-02-28T13:18:27;101969.56;;;9.00;58.73
51849;BME280;38952;51.090;-1.832;2023-02-28T13:27:11;101975.16;;;9.12;59.17
51849;BME280;38952;51.090;-1.832;2023-02-28T13:29:59;101956.94;;;9.05;59.46
51849;BME280;38952;51.090;-1.832;2023-02-28T13:42:58;101926.72;;;9.07;59.41
51849;BME280;38952;51.090;-1.832;2023-02-28T13:45:33;101910.25;;;9.20;59.53
51849;BME280;38952;51.090;-1.832;2023-02-28T13:48:24;101905.47;;;9.41;59.02
51849;BME280;38952;51.090;-1.832;2023-02-28T13:54:15;101890.41;;;9.82;57.69
51849;BME280;38952;51.090;-1.832;2023-02-28T14:05:33;101887.50;;;12.37;51.62
51849;BME280;38952;51.090;-1.832;2023-02-28T14:10:48;101888.34;;;11.66;52.05
51849;BME280;38952;51.090;-1.832;2023-02-28T14:16:09;101901.97;;;10.77;53.88
51849;BME280;38952;51.090;-1.832;2023-02-28T14:18:37;101887.97;;;10.36;54.39
51849;BME280;38952;51.090;-1.832;2023-02-28T14:21:09;101897.72;;;10.07;55.15
51849;BME280;38952;51.090;-1.832;2023-02-28T14:34:43;101869.03;;;19.47;38.10
51849;BME280;38952;51.090;-1.832;2023-02-28T14:37:18;101858.53;;;19.68;36.64
51849;BME280;38952;51.090;-1.832;2023-02-28T14:39:46;101846.34;;;19.05;37.07
51849;BME280;38952;51.090;-1.832;2023-02-28T14:42:37;101845.78;;;17.88;38.20
51849;BME280;38952;51.090;-1.832;2023-02-28T14:45:22;101838.28;;;16.60;38.31
51849;BME280;38952;51.090;-1.832;2023-02-28T14:47:52;101839.28;;;15.37;40.74
51849;BME280;38952;51.090;-1.832;2023-02-28T14:50:23;101819.94;;;14.67;41.96
51849;BME280;38952;51.090;-1.832;2023-02-28T14:52:55;101827.25;;;13.90;43.63
51849;BME280;38952;51.090;-1.832;2023-02-28T14:55:33;101829.66;;;13.47;44.71
51849;BME280;38952;51.090;-1.832;2023-02-28T14:58:01;101824.19;;;12.84;46.23
51849;BME280;38952;51.090;-1.832;2023-02-28T15:00:32;101826.72;;;12.28;47.39
51849;BME280;38952;51.090;-1.832;2023-02-28T15:03:11;101818.81;;;13.23;49.83
51849;BME280;38952;51.090;-1.832;2023-02-28T15:05:42;101823.84;;;16.27;42.85
51849;BME280;38952;51.090;-1.832;2023-02-28T15:08:16;101823.78;;;16.16;41.61
51849;BME280;38952;51.090;-1.832;2023-02-28T15:10:58;101827.31;;;14.89;42.47
51849;BME280;38952;51.090;-1.832;2023-02-28T15:13:42;101799.34;;;13.25;44.49
51849;BME280;38952;51.090;-1.832;2023-02-28T15:16:22;101816.56;;;12.29;47.06
51849;BME280;38952;51.090;-1.832;2023-02-28T15:18:53;101806.41;;;11.53;48.81
51849;BME280;38952;51.090;-1.832;2023-02-28T15:21:29;101803.03;;;11.04;50.64
51849;BME280;38952;51.090;-1.832;2023-02-28T15:24:08;101801.50;;;10.65;52.24
51849;BME280;38952;51.090;-1.832;2023-02-28T15:26:41;101806.22;;;10.28;53.58
51849;BME280;38952;51.090;-1.832;2023-02-28T15:29:21;101786.66;;;9.94;54.26
51849;BME280;38952;51.090;-1.832;2023-02-28T15:31:55;101806.63;;;9.76;55.77
51849;BME280;38952;51.090;-1.832;2023-02-28T15:34:27;101801.59;;;9.54;56.63